Aviation Digital Data Service (ADDS)

Output produced by METARs form (0011 UTC 24 May 2022)
found at http://www.aviationweather.gov/metar/data/
 
DTTA 240000Z 36005KT CAVOK 21/14 Q1010
TAF DTTA 232300Z 2400/2424 VRB02KT CAVOK 
     BECMG 2410/2412 06010KT 
     BECMG 2416/2418 32010KT
       
DTTR 232300Z AUTO 07006KT 020V090 NCD 26/M08 Q1012
TAF DTTR 240000Z 2401/2410 VRB03KT CAVOK
       
DTTG 232200Z 18006KT CAVOK 26/M00 Q1011 NOSIG
TAF DTTG 232100Z 2322/2407 VRB03KT CAVOK
       
DTTF 240000Z 19005KT CAVOK 27/M00 Q1011 NOSIG
TAF DTTF 232100Z 2322/2407 18010KT 9999 FEW023 
     BECMG 2322/2324 VRB02KT
       
DTMB 240000Z 15006KT CAVOK 23/14 Q1010
TAF DTMB 232300Z 2400/2424 VRB03KT 8000 NSC 
     BECMG 2410/2412 07010KT 
     BECMG 2419/2421 15015KT
       
DTTZ 240000Z 19009KT CAVOK 28/M04 Q1009
TAF DTTZ 232300Z 2400/2424 20010KT CAVOK 
     BECMG 2401/2403 VRB02KT 
     BECMG 2410/2412 25010KT
       
DTTD 240000Z AUTO 16003KT 140V200 NCD 27/M02 Q1012
DTTB 240000Z 36002KT CAVOK 17/13 Q1010
TAF DTTB 240000Z 2401/2410 VRB02KT CAVOK
       
DTKA 240000Z 08007KT CAVOK 17/12 Q1010 NOSIG
TAF DTKA 232100Z 2322/2407 26010KT CAVOK 
     BECMG 2322/2324 VRB02KT
       
DTTX 240000Z 12002KT CAVOK 22/13 Q1010 NOSIG
TAF DTTX 232300Z 2400/2424 VRB02KT CAVOK 
     BECMG 2410/2412 16010KT
       
DTTJ 240000Z 17007KT CAVOK 23/13 Q1010 NOSIG
TAF DTTJ 232300Z 2400/2424 16010KT CAVOK 
     BECMG 2402/2404 VRB03KT 
     BECMG 2413/2415 08010KT